»·PEaware :: N8351P KBOI-KMYL

N8351P :: KBOI-KMYL

FLIGHT INFORMATION

Flight Status: Arrived
Operator: Privately registered:
United States
More flights under this callsign
Pilot: Christian A. (580)
Aircraft: PIPER PA-24 COMMANCHE
(PA24)
More flights by this aircraft type
Origin: KBOI Boise Air Terminal/Gowen
United States
Destination: KMYL McCall
United States
More flights between these airports :: More routes between these airports
Route: +DCT VFR
File this flight plan on PilotEdge
Remarks:
Altitude:
(Current/Filed)
8,500ft
Speed:
(Current/Filed)
165kts
Departed: 07-Sep-18 11:30 AM
Arrived: 07-Sep-18 12:06 PM
Distance/Time
Traveled:
80nm/0:36
Distance/Time
To Go:
Arrived

Flight Plot

Page will automatically refresh every two minutes.

Flight plan parsing failed; only flown route is shown


Map Options




Map Legend


Flown Route
Filed Route
Departure Airport
Arrival Airport
Navaid (VOR, NDB)
Fix

Horizontal Profiles

Position Reports

Time Latitude Longitude Heading Altitude Ground
Speed
07-Sep-18 11:10 43.570065 -116.226319 184 2837ft 0kts
07-Sep-18 11:11 43.570065 -116.226319 184 2837ft 0kts
07-Sep-18 11:12 43.570065 -116.226319 184 2837ft 0kts
07-Sep-18 11:13 43.570065 -116.226319 184 2837ft 0kts
07-Sep-18 11:14 43.570065 -116.226319 184 2837ft 0kts
07-Sep-18 11:15 43.570064 -116.226319 184 2837ft 0kts
07-Sep-18 11:16 43.570063 -116.226319 184 2837ft 0kts
07-Sep-18 11:17 43.570061 -116.226319 184 2837ft 0kts
07-Sep-18 11:18 43.570059 -116.226319 184 2837ft 0kts
07-Sep-18 11:19 43.570024 -116.226323 184 2837ft 0kts
07-Sep-18 11:20 43.569335 -116.226395 190 2837ft 0kts
07-Sep-18 11:21 43.569333 -116.226395 190 2837ft 0kts
07-Sep-18 11:22 43.569332 -116.226396 190 2837ft 0kts
07-Sep-18 11:23 43.569330 -116.226396 190 2837ft 0kts
07-Sep-18 11:24 43.569328 -116.226397 190 2837ft 0kts
07-Sep-18 11:25 43.569326 -116.226397 190 2837ft 0kts
07-Sep-18 11:26 43.568740 -116.228710 272 2837ft 8kts
07-Sep-18 11:27 43.570310 -116.233585 295 2837ft 15kts
07-Sep-18 11:28 43.570809 -116.235972 205 2837ft 0kts
07-Sep-18 11:29 43.570805 -116.235975 205 2837ft 0kts
07-Sep-18 11:30 43.570801 -116.235977 205 2837ft 0kts
07-Sep-18 11:31 43.570375 -116.236283 209 2837ft 11kts
07-Sep-18 11:32 43.564943 -116.221327 113 2923ft 105kts
07-Sep-18 11:33 43.551460 -116.185094 120 4139ft 102kts
07-Sep-18 11:34 43.539333 -116.150900 116 5094ft 104kts
07-Sep-18 11:35 43.526087 -116.113007 115 6037ft 111kts
07-Sep-18 11:36 43.522167 -116.071242 77 7194ft 114kts
07-Sep-18 11:37 43.545310 -116.045680 3 8370ft 120kts
07-Sep-18 11:38 43.585413 -116.045755 357 8502ft 162kts
07-Sep-18 11:39 43.631428 -116.047248 357 8506ft 163kts
07-Sep-18 11:40 43.677596 -116.049780 356 8512ft 170kts
07-Sep-18 11:41 43.725938 -116.052688 356 8504ft 169kts
07-Sep-18 11:42 43.772133 -116.055865 355 8511ft 169kts
07-Sep-18 11:43 43.820408 -116.058767 358 8513ft 173kts
07-Sep-18 11:44 43.868725 -116.059577 358 8517ft 173kts
07-Sep-18 11:45 43.917083 -116.060756 358 8518ft 171kts
07-Sep-18 11:46 43.964179 -116.061069 358 8535ft 166kts
07-Sep-18 11:47 44.009943 -116.061992 358 8550ft 169kts
07-Sep-18 11:48 44.058416 -116.063209 358 8558ft 175kts
07-Sep-18 11:49 44.107415 -116.065162 357 8565ft 176kts
07-Sep-18 11:50 44.156316 -116.068467 357 8564ft 170kts
07-Sep-18 11:51 44.202423 -116.071123 356 8581ft 164kts
07-Sep-18 11:52 44.247847 -116.074413 355 8595ft 168kts
07-Sep-18 11:53 44.296042 -116.077359 356 8598ft 175kts
07-Sep-18 11:54 44.344787 -116.080496 356 8593ft 170kts
07-Sep-18 11:55 44.391132 -116.083555 358 8594ft 169kts
07-Sep-18 11:56 44.441934 -116.085386 357 7946ft 189kts
07-Sep-18 11:57 44.494842 -116.088115 356 7104ft 189kts
07-Sep-18 11:58 44.546808 -116.089086 358 6597ft 179kts
07-Sep-18 11:59 44.594558 -116.089858 358 6590ft 167kts
07-Sep-18 12:00 44.640568 -116.090253 358 6591ft 164kts
07-Sep-18 12:01 44.687771 -116.092300 356 6583ft 170kts
07-Sep-18 12:02 44.733982 -116.094381 356 6571ft 158kts
07-Sep-18 12:03 44.773529 -116.097122 353 6579ft 126kts
07-Sep-18 12:04 44.806450 -116.099480 356 6359ft 118kts
07-Sep-18 12:05 44.838425 -116.100251 1 5840ft 108kts
07-Sep-18 12:06 44.866968 -116.101015 1 5335ft 94kts
07-Sep-18 12:07 44.890030 -116.101800 354 5024ft 48kts
07-Sep-18 12:08 44.896128 -116.102039 359 5024ft 17kts
07-Sep-18 12:09 44.896329 -116.100768 46 5024ft 0kts
07-Sep-18 12:10 44.896329 -116.100768 46 5024ft 0kts

Navigation Log

Ident Type
Flight plan parsing failed, navigation log unavailable